sensor_id;sensor_type;location;lat;lon;timestamp;P1;durP1;ratioP1;P2;durP2;ratioP2
21018;SDS011;10667;51.056;3.732;2023-11-18T00:01:53;19.63;;;8.85;;
21018;SDS011;10667;51.056;3.732;2023-11-18T00:04:19;16.27;;;7.45;;
21018;SDS011;10667;51.056;3.732;2023-11-18T00:06:45;13.20;;;7.68;;
21018;SDS011;10667;51.056;3.732;2023-11-18T00:09:11;16.40;;;8.15;;
21018;SDS011;10667;51.056;3.732;2023-11-18T00:11:43;13.80;;;7.22;;
21018;SDS011;10667;51.056;3.732;2023-11-18T00:14:09;19.27;;;7.70;;
21018;SDS011;10667;51.056;3.732;2023-11-18T00:16:38;16.15;;;7.88;;
21018;SDS011;10667;51.056;3.732;2023-11-18T00:19:04;17.65;;;7.53;;
21018;SDS011;10667;51.056;3.732;2023-11-18T00:21:34;13.85;;;7.45;;
21018;SDS011;10667;51.056;3.732;2023-11-18T00:24:01;17.38;;;8.63;;
21018;SDS011;10667;51.056;3.732;2023-11-18T00:26:27;13.50;;;7.72;;
21018;SDS011;10667;51.056;3.732;2023-11-18T00:28:52;16.38;;;8.07;;
21018;SDS011;10667;51.056;3.732;2023-11-18T00:31:18;16.27;;;7.13;;
21018;SDS011;10667;51.056;3.732;2023-11-18T00:33:44;14.52;;;7.45;;
21018;SDS011;10667;51.056;3.732;2023-11-18T00:36:10;15.13;;;7.38;;
21018;SDS011;10667;51.056;3.732;2023-11-18T00:38:35;15.48;;;7.90;;
21018;SDS011;10667;51.056;3.732;2023-11-18T00:41:01;14.00;;;7.47;;
21018;SDS011;10667;51.056;3.732;2023-11-18T00:43:27;17.88;;;7.40;;
21018;SDS011;10667;51.056;3.732;2023-11-18T00:45:52;13.10;;;7.80;;
21018;SDS011;10667;51.056;3.732;2023-11-18T00:48:18;17.23;;;7.60;;
21018;SDS011;10667;51.056;3.732;2023-11-18T00:50:43;15.90;;;7.88;;
21018;SDS011;10667;51.056;3.732;2023-11-18T00:53:09;15.73;;;7.60;;
21018;SDS011;10667;51.056;3.732;2023-11-18T00:55:35;16.13;;;7.30;;
21018;SDS011;10667;51.056;3.732;2023-11-18T00:58:01;13.02;;;7.13;;
21018;SDS011;10667;51.056;3.732;2023-11-18T01:00:26;16.45;;;7.13;;
21018;SDS011;10667;51.056;3.732;2023-11-18T01:02:52;15.02;;;7.32;;
21018;SDS011;10667;51.056;3.732;2023-11-18T01:05:19;17.08;;;7.82;;
21018;SDS011;10667;51.056;3.732;2023-11-18T01:07:45;18.83;;;7.53;;
21018;SDS011;10667;51.056;3.732;2023-11-18T01:10:11;14.93;;;6.78;;
21018;SDS011;10667;51.056;3.732;2023-11-18T01:12:38;10.88;;;6.38;;
21018;SDS011;10667;51.056;3.732;2023-11-18T01:15:04;21.15;;;7.32;;
21018;SDS011;10667;51.056;3.732;2023-11-18T01:17:32;17.42;;;7.10;;
21018;SDS011;10667;51.056;3.732;2023-11-18T01:19:58;16.10;;;7.20;;
21018;SDS011;10667;51.056;3.732;2023-11-18T01:22:26;16.10;;;7.38;;
21018;SDS011;10667;51.056;3.732;2023-11-18T01:24:51;15.25;;;6.78;;
21018;SDS011;10667;51.056;3.732;2023-11-18T01:27:17;15.15;;;6.90;;
21018;SDS011;10667;51.056;3.732;2023-11-18T01:29:44;16.73;;;6.70;;
21018;SDS011;10667;51.056;3.732;2023-11-18T01:32:12;18.10;;;7.40;;
21018;SDS011;10667;51.056;3.732;2023-11-18T01:34:39;17.60;;;7.15;;
21018;SDS011;10667;51.056;3.732;2023-11-18T01:37:05;17.75;;;6.80;;
21018;SDS011;10667;51.056;3.732;2023-11-18T01:39:35;16.52;;;8.77;;
21018;SDS011;10667;51.056;3.732;2023-11-18T01:42:01;17.80;;;7.30;;
21018;SDS011;10667;51.056;3.732;2023-11-18T01:44:28;20.95;;;6.85;;
21018;SDS011;10667;51.056;3.732;2023-11-18T01:46:54;17.10;;;6.53;;
21018;SDS011;10667;51.056;3.732;2023-11-18T01:49:21;21.42;;;7.28;;
21018;SDS011;10667;51.056;3.732;2023-11-18T01:51:48;16.13;;;6.82;;
21018;SDS011;10667;51.056;3.732;2023-11-18T01:54:16;13.32;;;6.60;;
21018;SDS011;10667;51.056;3.732;2023-11-18T01:56:45;13.20;;;6.18;;
21018;SDS011;10667;51.056;3.732;2023-11-18T01:59:12;17.73;;;6.25;;
21018;SDS011;10667;51.056;3.732;2023-11-18T02:01:48;18.20;;;6.55;;
21018;SDS011;10667;51.056;3.732;2023-11-18T02:04:18;16.33;;;6.10;;
21018;SDS011;10667;51.056;3.732;2023-11-18T02:06:45;14.20;;;6.15;;
21018;SDS011;10667;51.056;3.732;2023-11-18T02:09:13;12.63;;;6.57;;
21018;SDS011;10667;51.056;3.732;2023-11-18T02:11:45;13.85;;;6.85;;
21018;SDS011;10667;51.056;3.732;2023-11-18T02:14:17;19.08;;;6.53;;
21018;SDS011;10667;51.056;3.732;2023-11-18T02:16:47;14.20;;;6.00;;
21018;SDS011;10667;51.056;3.732;2023-11-18T02:19:24;14.68;;;6.95;;
21018;SDS011;10667;51.056;3.732;2023-11-18T02:21:54;18.88;;;6.35;;
21018;SDS011;10667;51.056;3.732;2023-11-18T02:24:28;12.75;;;5.80;;
21018;SDS011;10667;51.056;3.732;2023-11-18T02:26:59;14.45;;;6.60;;
21018;SDS011;10667;51.056;3.732;2023-11-18T02:29:26;16.90;;;6.32;;
21018;SDS011;10667;51.056;3.732;2023-11-18T02:31:57;13.18;;;6.45;;
21018;SDS011;10667;51.056;3.732;2023-11-18T02:34:28;15.93;;;6.00;;
21018;SDS011;10667;51.056;3.732;2023-11-18T02:36:57;14.13;;;6.03;;
21018;SDS011;10667;51.056;3.732;2023-11-18T02:39:32;13.70;;;6.00;;
21018;SDS011;10667;51.056;3.732;2023-11-18T02:42:04;16.48;;;6.22;;
21018;SDS011;10667;51.056;3.732;2023-11-18T02:44:33;14.73;;;6.85;;
21018;SDS011;10667;51.056;3.732;2023-11-18T02:47:02;15.73;;;6.03;;
21018;SDS011;10667;51.056;3.732;2023-11-18T02:49:34;14.00;;;6.60;;
21018;SDS011;10667;51.056;3.732;2023-11-18T02:52:00;17.58;;;6.93;;
21018;SDS011;10667;51.056;3.732;2023-11-18T02:54:25;15.13;;;6.88;;
21018;SDS011;10667;51.056;3.732;2023-11-18T02:56:51;18.65;;;7.63;;
21018;SDS011;10667;51.056;3.732;2023-11-18T02:59:17;16.85;;;6.72;;
21018;SDS011;10667;51.056;3.732;2023-11-18T03:01:43;15.50;;;6.75;;
21018;SDS011;10667;51.056;3.732;2023-11-18T03:04:09;12.50;;;5.63;;
21018;SDS011;10667;51.056;3.732;2023-11-18T03:06:35;13.57;;;6.57;;
21018;SDS011;10667;51.056;3.732;2023-11-18T03:09:01;14.18;;;6.22;;
21018;SDS011;10667;51.056;3.732;2023-11-18T03:11:28;12.70;;;6.38;;
21018;SDS011;10667;51.056;3.732;2023-11-18T03:13:56;16.05;;;6.40;;
21018;SDS011;10667;51.056;3.732;2023-11-18T03:16:22;15.27;;;6.72;;
21018;SDS011;10667;51.056;3.732;2023-11-18T03:18:49;13.70;;;6.60;;
21018;SDS011;10667;51.056;3.732;2023-11-18T03:21:15;17.83;;;7.15;;
21018;SDS011;10667;51.056;3.732;2023-11-18T03:23:41;14.60;;;6.45;;
21018;SDS011;10667;51.056;3.732;2023-11-18T03:26:08;15.35;;;6.55;;
21018;SDS011;10667;51.056;3.732;2023-11-18T03:28:35;17.75;;;6.38;;
21018;SDS011;10667;51.056;3.732;2023-11-18T03:31:02;19.83;;;6.22;;
21018;SDS011;10667;51.056;3.732;2023-11-18T03:33:29;14.55;;;6.15;;
21018;SDS011;10667;51.056;3.732;2023-11-18T03:35:54;10.57;;;5.15;;
21018;SDS011;10667;51.056;3.732;2023-11-18T03:38:21;17.08;;;6.70;;
21018;SDS011;10667;51.056;3.732;2023-11-18T03:40:47;15.18;;;5.80;;
21018;SDS011;10667;51.056;3.732;2023-11-18T03:43:13;20.13;;;5.75;;
21018;SDS011;10667;51.056;3.732;2023-11-18T03:45:39;12.57;;;5.28;;
21018;SDS011;10667;51.056;3.732;2023-11-18T03:48:05;10.23;;;5.45;;
21018;SDS011;10667;51.056;3.732;2023-11-18T03:50:31;16.02;;;5.85;;
21018;SDS011;10667;51.056;3.732;2023-11-18T03:52:59;9.55;;;5.38;;
21018;SDS011;10667;51.056;3.732;2023-11-18T03:55:26;14.93;;;6.03;;
21018;SDS011;10667;51.056;3.732;2023-11-18T03:57:52;9.82;;;5.03;;
21018;SDS011;10667;51.056;3.732;2023-11-18T04:00:19;9.13;;;5.22;;
21018;SDS011;10667;51.056;3.732;2023-11-18T04:02:47;8.77;;;4.68;;
21018;SDS011;10667;51.056;3.732;2023-11-18T04:05:13;12.68;;;5.35;;
21018;SDS011;10667;51.056;3.732;2023-11-18T04:07:39;13.15;;;5.50;;
21018;SDS011;10667;51.056;3.732;2023-11-18T04:10:06;12.20;;;4.93;;
21018;SDS011;10667;51.056;3.732;2023-11-18T04:12:35;12.75;;;4.90;;
21018;SDS011;10667;51.056;3.732;2023-11-18T04:15:01;12.20;;;4.90;;
21018;SDS011;10667;51.056;3.732;2023-11-18T04:17:29;12.48;;;4.90;;
21018;SDS011;10667;51.056;3.732;2023-11-18T04:19:55;14.32;;;4.95;;
21018;SDS011;10667;51.056;3.732;2023-11-18T04:22:21;16.40;;;5.00;;
21018;SDS011;10667;51.056;3.732;2023-11-18T04:24:47;13.38;;;5.72;;
21018;SDS011;10667;51.056;3.732;2023-11-18T04:27:13;9.95;;;4.85;;
21018;SDS011;10667;51.056;3.732;2023-11-18T04:29:39;11.60;;;4.93;;
21018;SDS011;10667;51.056;3.732;2023-11-18T04:32:05;17.15;;;4.70;;
21018;SDS011;10667;51.056;3.732;2023-11-18T04:34:35;14.70;;;4.80;;
21018;SDS011;10667;51.056;3.732;2023-11-18T04:37:03;14.63;;;4.97;;
21018;SDS011;10667;51.056;3.732;2023-11-18T04:39:31;12.25;;;4.85;;
21018;SDS011;10667;51.056;3.732;2023-11-18T04:41:57;13.20;;;4.22;;
21018;SDS011;10667;51.056;3.732;2023-11-18T04:44:23;8.63;;;4.03;;
21018;SDS011;10667;51.056;3.732;2023-11-18T04:46:49;13.30;;;4.47;;
21018;SDS011;10667;51.056;3.732;2023-11-18T04:49:15;12.48;;;4.40;;
21018;SDS011;10667;51.056;3.732;2023-11-18T04:51:41;12.38;;;4.53;;
21018;SDS011;10667;51.056;3.732;2023-11-18T04:54:06;13.23;;;4.80;;
21018;SDS011;10667;51.056;3.732;2023-11-18T04:56:33;12.63;;;4.95;;
21018;SDS011;10667;51.056;3.732;2023-11-18T04:59:02;10.20;;;4.25;;
21018;SDS011;10667;51.056;3.732;2023-11-18T05:01:30;10.52;;;4.80;;
21018;SDS011;10667;51.056;3.732;2023-11-18T05:03:56;8.75;;;4.63;;
21018;SDS011;10667;51.056;3.732;2023-11-18T05:06:22;11.45;;;4.20;;
21018;SDS011;10667;51.056;3.732;2023-11-18T05:08:48;11.13;;;4.60;;
21018;SDS011;10667;51.056;3.732;2023-11-18T05:11:14;8.45;;;4.07;;
21018;SDS011;10667;51.056;3.732;2023-11-18T05:13:40;12.00;;;4.22;;
21018;SDS011;10667;51.056;3.732;2023-11-18T05:16:06;10.13;;;4.72;;
21018;SDS011;10667;51.056;3.732;2023-11-18T05:18:32;16.23;;;4.82;;
21018;SDS011;10667;51.056;3.732;2023-11-18T05:21:01;8.52;;;3.80;;
21018;SDS011;10667;51.056;3.732;2023-11-18T05:23:27;13.75;;;4.18;;
21018;SDS011;10667;51.056;3.732;2023-11-18T05:26:00;12.18;;;3.88;;
21018;SDS011;10667;51.056;3.732;2023-11-18T05:28:29;14.00;;;4.30;;
21018;SDS011;10667;51.056;3.732;2023-11-18T05:30:55;9.88;;;3.80;;
21018;SDS011;10667;51.056;3.732;2023-11-18T05:33:23;10.00;;;4.18;;
21018;SDS011;10667;51.056;3.732;2023-11-18T05:35:48;11.05;;;3.90;;
21018;SDS011;10667;51.056;3.732;2023-11-18T05:38:17;19.33;;;5.15;;
21018;SDS011;10667;51.056;3.732;2023-11-18T05:40:46;11.85;;;3.83;;
21018;SDS011;10667;51.056;3.732;2023-11-18T05:43:25;11.25;;;4.10;;
21018;SDS011;10667;51.056;3.732;2023-11-18T05:46:01;8.95;;;3.92;;
21018;SDS011;10667;51.056;3.732;2023-11-18T05:48:47;13.25;;;4.15;;
21018;SDS011;10667;51.056;3.732;2023-11-18T05:51:21;11.23;;;4.05;;
21018;SDS011;10667;51.056;3.732;2023-11-18T05:53:48;11.15;;;3.95;;
21018;SDS011;10667;51.056;3.732;2023-11-18T05:56:14;8.68;;;4.45;;
21018;SDS011;10667;51.056;3.732;2023-11-18T05:58:42;8.98;;;3.78;;
21018;SDS011;10667;51.056;3.732;2023-11-18T06:01:08;11.88;;;4.10;;
21018;SDS011;10667;51.056;3.732;2023-11-18T06:03:35;13.70;;;4.45;;
21018;SDS011;10667;51.056;3.732;2023-11-18T06:06:08;13.30;;;4.05;;
21018;SDS011;10667;51.056;3.732;2023-11-18T06:08:35;15.73;;;4.07;;
21018;SDS011;10667;51.056;3.732;2023-11-18T06:11:06;9.30;;;3.45;;
21018;SDS011;10667;51.056;3.732;2023-11-18T06:13:39;10.32;;;3.58;;
21018;SDS011;10667;51.056;3.732;2023-11-18T06:16:08;9.10;;;4.20;;
21018;SDS011;10667;51.056;3.732;2023-11-18T06:18:48;12.90;;;4.05;;
21018;SDS011;10667;51.056;3.732;2023-11-18T06:21:16;9.80;;;4.05;;
21018;SDS011;10667;51.056;3.732;2023-11-18T06:23:43;13.90;;;4.50;;
21018;SDS011;10667;51.056;3.732;2023-11-18T06:26:13;10.68;;;4.07;;
21018;SDS011;10667;51.056;3.732;2023-11-18T06:28:43;10.98;;;4.55;;
21018;SDS011;10667;51.056;3.732;2023-11-18T06:31:09;8.27;;;3.92;;
21018;SDS011;10667;51.056;3.732;2023-11-18T06:33:43;11.30;;;4.30;;
21018;SDS011;10667;51.056;3.732;2023-11-18T06:38:39;11.27;;;3.97;;
21018;SDS011;10667;51.056;3.732;2023-11-18T06:41:08;11.98;;;4.30;;
21018;SDS011;10667;51.056;3.732;2023-11-18T06:43:37;19.35;;;3.72;;
21018;SDS011;10667;51.056;3.732;2023-11-18T06:46:28;6.97;;;3.80;;
21018;SDS011;10667;51.056;3.732;2023-11-18T06:48:59;14.15;;;4.32;;
21018;SDS011;10667;51.056;3.732;2023-11-18T06:51:29;14.65;;;3.95;;
21018;SDS011;10667;51.056;3.732;2023-11-18T06:53:57;10.98;;;4.40;;
21018;SDS011;10667;51.056;3.732;2023-11-18T06:56:23;10.38;;;3.90;;
21018;SDS011;10667;51.056;3.732;2023-11-18T06:58:49;9.25;;;4.22;;
21018;SDS011;10667;51.056;3.732;2023-11-18T07:01:15;14.77;;;4.57;;
21018;SDS011;10667;51.056;3.732;2023-11-18T07:03:42;13.05;;;4.22;;
21018;SDS011;10667;51.056;3.732;2023-11-18T07:06:08;12.43;;;4.45;;
21018;SDS011;10667;51.056;3.732;2023-11-18T07:08:35;16.08;;;4.85;;
21018;SDS011;10667;51.056;3.732;2023-11-18T07:11:01;12.05;;;4.50;;
21018;SDS011;10667;51.056;3.732;2023-11-18T07:13:31;7.57;;;4.15;;
21018;SDS011;10667;51.056;3.732;2023-11-18T07:15:59;11.88;;;4.47;;
21018;SDS011;10667;51.056;3.732;2023-11-18T07:18:28;11.85;;;4.30;;
21018;SDS011;10667;51.056;3.732;2023-11-18T07:21:00;13.40;;;4.35;;
21018;SDS011;10667;51.056;3.732;2023-11-18T07:23:25;13.18;;;4.28;;
21018;SDS011;10667;51.056;3.732;2023-11-18T07:25:51;15.38;;;4.55;;
21018;SDS011;10667;51.056;3.732;2023-11-18T07:28:18;14.27;;;4.80;;
21018;SDS011;10667;51.056;3.732;2023-11-18T07:30:45;7.47;;;4.13;;
21018;SDS011;10667;51.056;3.732;2023-11-18T07:33:18;9.02;;;3.90;;
21018;SDS011;10667;51.056;3.732;2023-11-18T07:35:45;9.77;;;4.60;;
21018;SDS011;10667;51.056;3.732;2023-11-18T07:38:15;11.25;;;4.38;;
21018;SDS011;10667;51.056;3.732;2023-11-18T07:40:42;10.38;;;4.80;;
21018;SDS011;10667;51.056;3.732;2023-11-18T07:43:13;8.80;;;3.70;;
21018;SDS011;10667;51.056;3.732;2023-11-18T07:45:42;15.95;;;4.88;;
21018;SDS011;10667;51.056;3.732;2023-11-18T07:48:09;12.30;;;5.03;;
21018;SDS011;10667;51.056;3.732;2023-11-18T07:50:36;10.18;;;4.93;;
21018;SDS011;10667;51.056;3.732;2023-11-18T07:53:03;10.98;;;3.97;;
21018;SDS011;10667;51.056;3.732;2023-11-18T07:55:31;13.63;;;4.78;;
21018;SDS011;10667;51.056;3.732;2023-11-18T07:58:02;12.00;;;4.38;;
21018;SDS011;10667;51.056;3.732;2023-11-18T08:00:29;5.68;;;4.35;;
21018;SDS011;10667;51.056;3.732;2023-11-18T08:02:58;13.95;;;5.65;;
21018;SDS011;10667;51.056;3.732;2023-11-18T08:05:25;13.60;;;5.43;;
21018;SDS011;10667;51.056;3.732;2023-11-18T08:07:53;13.50;;;5.18;;
21018;SDS011;10667;51.056;3.732;2023-11-18T08:10:18;16.15;;;4.95;;
21018;SDS011;10667;51.056;3.732;2023-11-18T08:12:45;11.75;;;4.80;;
21018;SDS011;10667;51.056;3.732;2023-11-18T08:15:12;11.00;;;5.20;;
21018;SDS011;10667;51.056;3.732;2023-11-18T08:17:38;15.30;;;5.03;;
21018;SDS011;10667;51.056;3.732;2023-11-18T08:20:04;14.63;;;5.68;;
21018;SDS011;10667;51.056;3.732;2023-11-18T08:22:39;11.43;;;5.15;;
21018;SDS011;10667;51.056;3.732;2023-11-18T08:25:06;9.43;;;5.15;;
21018;SDS011;10667;51.056;3.732;2023-11-18T08:27:34;16.08;;;5.57;;
21018;SDS011;10667;51.056;3.732;2023-11-18T08:30:00;8.73;;;5.50;;
21018;SDS011;10667;51.056;3.732;2023-11-18T08:32:30;13.80;;;5.63;;
21018;SDS011;10667;51.056;3.732;2023-11-18T08:34:56;15.43;;;6.47;;
21018;SDS011;10667;51.056;3.732;2023-11-18T08:37:22;11.25;;;6.50;;
21018;SDS011;10667;51.056;3.732;2023-11-18T08:39:47;10.85;;;5.90;;
21018;SDS011;10667;51.056;3.732;2023-11-18T08:42:13;12.52;;;5.90;;
21018;SDS011;10667;51.056;3.732;2023-11-18T08:44:39;11.05;;;6.13;;
21018;SDS011;10667;51.056;3.732;2023-11-18T08:47:05;13.82;;;6.53;;
21018;SDS011;10667;51.056;3.732;2023-11-18T08:49:33;13.73;;;7.15;;
21018;SDS011;10667;51.056;3.732;2023-11-18T08:51:59;17.15;;;7.80;;
21018;SDS011;10667;51.056;3.732;2023-11-18T08:54:26;13.40;;;7.53;;
21018;SDS011;10667;51.056;3.732;2023-11-18T08:57:02;15.70;;;6.97;;
21018;SDS011;10667;51.056;3.732;2023-11-18T08:59:28;15.10;;;7.72;;
21018;SDS011;10667;51.056;3.732;2023-11-18T09:01:55;13.52;;;7.90;;
21018;SDS011;10667;51.056;3.732;2023-11-18T09:04:24;17.98;;;8.15;;
21018;SDS011;10667;51.056;3.732;2023-11-18T09:06:50;16.77;;;8.38;;
21018;SDS011;10667;51.056;3.732;2023-11-18T09:09:22;17.25;;;8.20;;
21018;SDS011;10667;51.056;3.732;2023-11-18T09:11:55;16.63;;;8.35;;
21018;SDS011;10667;51.056;3.732;2023-11-18T09:14:23;16.90;;;7.90;;
21018;SDS011;10667;51.056;3.732;2023-11-18T09:16:51;16.67;;;8.15;;
21018;SDS011;10667;51.056;3.732;2023-11-18T09:19:17;18.65;;;7.68;;
21018;SDS011;10667;51.056;3.732;2023-11-18T09:21:46;12.05;;;7.72;;
21018;SDS011;10667;51.056;3.732;2023-11-18T09:24:12;17.85;;;7.40;;
21018;SDS011;10667;51.056;3.732;2023-11-18T09:26:39;16.15;;;8.20;;
21018;SDS011;10667;51.056;3.732;2023-11-18T09:29:05;13.32;;;7.30;;
21018;SDS011;10667;51.056;3.732;2023-11-18T09:31:34;12.30;;;6.60;;
21018;SDS011;10667;51.056;3.732;2023-11-18T09:34:02;12.00;;;6.88;;
21018;SDS011;10667;51.056;3.732;2023-11-18T09:36:32;14.98;;;6.65;;
21018;SDS011;10667;51.056;3.732;2023-11-18T09:38:59;9.70;;;6.38;;
21018;SDS011;10667;51.056;3.732;2023-11-18T09:41:28;9.77;;;6.22;;
21018;SDS011;10667;51.056;3.732;2023-11-18T09:43:54;10.95;;;7.05;;
21018;SDS011;10667;51.056;3.732;2023-11-18T09:46:29;10.68;;;6.97;;
21018;SDS011;10667;51.056;3.732;2023-11-18T09:51:42;7.82;;;6.13;;
21018;SDS011;10667;51.056;3.732;2023-11-18T09:54:21;13.95;;;6.63;;
21018;SDS011;10667;51.056;3.732;2023-11-18T10:02:11;12.77;;;7.38;;
21018;SDS011;10667;51.056;3.732;2023-11-18T10:04:38;10.10;;;6.75;;
21018;SDS011;10667;51.056;3.732;2023-11-18T10:07:05;10.70;;;7.32;;
21018;SDS011;10667;51.056;3.732;2023-11-18T10:09:36;10.70;;;6.65;;
21018;SDS011;10667;51.056;3.732;2023-11-18T10:12:03;10.88;;;6.60;;
21018;SDS011;10667;51.056;3.732;2023-11-18T10:14:35;9.05;;;5.68;;
21018;SDS011;10667;51.056;3.732;2023-11-18T10:17:07;11.60;;;6.65;;
21018;SDS011;10667;51.056;3.732;2023-11-18T10:22:37;8.35;;;5.78;;
21018;SDS011;10667;51.056;3.732;2023-11-18T10:25:03;7.15;;;5.68;;
21018;SDS011;10667;51.056;3.732;2023-11-18T10:27:31;9.00;;;5.63;;
21018;SDS011;10667;51.056;3.732;2023-11-18T10:30:05;7.65;;;5.40;;
21018;SDS011;10667;51.056;3.732;2023-11-18T10:32:44;7.65;;;5.57;;
21018;SDS011;10667;51.056;3.732;2023-11-18T10:35:32;10.52;;;5.72;;
21018;SDS011;10667;51.056;3.732;2023-11-18T10:38:01;7.60;;;5.43;;
21018;SDS011;10667;51.056;3.732;2023-11-18T10:40:31;7.35;;;5.00;;
21018;SDS011;10667;51.056;3.732;2023-11-18T10:43:03;8.98;;;5.30;;
21018;SDS011;10667;51.056;3.732;2023-11-18T10:45:34;7.40;;;4.97;;
21018;SDS011;10667;51.056;3.732;2023-11-18T10:48:07;6.38;;;5.07;;
21018;SDS011;10667;51.056;3.732;2023-11-18T10:50:33;6.03;;;4.35;;
21018;SDS011;10667;51.056;3.732;2023-11-18T10:52:59;6.93;;;4.72;;
21018;SDS011;10667;51.056;3.732;2023-11-18T10:55:35;6.78;;;3.85;;
21018;SDS011;10667;51.056;3.732;2023-11-18T10:58:05;6.88;;;3.88;;
21018;SDS011;10667;51.056;3.732;2023-11-18T11:00:51;6.30;;;3.90;;
21018;SDS011;10667;51.056;3.732;2023-11-18T11:03:21;6.88;;;4.10;;
21018;SDS011;10667;51.056;3.732;2023-11-18T11:05:50;6.03;;;3.90;;
21018;SDS011;10667;51.056;3.732;2023-11-18T11:08:19;5.82;;;3.47;;
21018;SDS011;10667;51.056;3.732;2023-11-18T11:10:45;6.53;;;3.33;;
21018;SDS011;10667;51.056;3.732;2023-11-18T11:13:14;5.20;;;3.70;;
21018;SDS011;10667;51.056;3.732;2023-11-18T11:15:43;5.82;;;3.33;;
21018;SDS011;10667;51.056;3.732;2023-11-18T11:18:11;3.67;;;2.70;;
21018;SDS011;10667;51.056;3.732;2023-11-18T11:26:33;4.28;;;3.00;;
21018;SDS011;10667;51.056;3.732;2023-11-18T11:29:48;3.70;;;3.03;;
21018;SDS011;10667;51.056;3.732;2023-11-18T11:35:03;4.50;;;2.63;;
21018;SDS011;10667;51.056;3.732;2023-11-18T11:37:42;3.13;;;2.78;;
21018;SDS011;10667;51.056;3.732;2023-11-18T11:40:08;7.45;;;2.75;;
21018;SDS011;10667;51.056;3.732;2023-11-18T11:42:36;6.47;;;3.38;;
21018;SDS011;10667;51.056;3.732;2023-11-18T11:45:05;4.05;;;2.45;;
21018;SDS011;10667;51.056;3.732;2023-11-18T11:47:44;4.90;;;2.53;;
21018;SDS011;10667;51.056;3.732;2023-11-18T11:50:22;3.20;;;2.90;;
21018;SDS011;10667;51.056;3.732;2023-11-18T11:52:58;2.72;;;2.42;;
21018;SDS011;10667;51.056;3.732;2023-11-18T11:55:49;2.78;;;2.30;;
21018;SDS011;10667;51.056;3.732;2023-11-18T11:58:26;2.78;;;2.28;;
21018;SDS011;10667;51.056;3.732;2023-11-18T12:00:53;5.57;;;2.67;;
21018;SDS011;10667;51.056;3.732;2023-11-18T12:03:21;3.70;;;2.60;;
21018;SDS011;10667;51.056;3.732;2023-11-18T12:05:49;3.30;;;2.70;;
21018;SDS011;10667;51.056;3.732;2023-11-18T12:08:21;3.97;;;2.80;;
21018;SDS011;10667;51.056;3.732;2023-11-18T12:10:53;3.15;;;2.50;;
21018;SDS011;10667;51.056;3.732;2023-11-18T12:13:21;3.35;;;2.33;;
21018;SDS011;10667;51.056;3.732;2023-11-18T12:15:50;2.83;;;2.28;;
21018;SDS011;10667;51.056;3.732;2023-11-18T12:18:22;4.18;;;2.78;;
21018;SDS011;10667;51.056;3.732;2023-11-18T12:20:49;2.65;;;2.45;;
21018;SDS011;10667;51.056;3.732;2023-11-18T12:23:22;4.63;;;2.35;;
21018;SDS011;10667;51.056;3.732;2023-11-18T12:25:49;4.65;;;2.58;;
21018;SDS011;10667;51.056;3.732;2023-11-18T12:28:19;5.15;;;2.42;;
21018;SDS011;10667;51.056;3.732;2023-11-18T12:30:53;2.50;;;2.30;;
21018;SDS011;10667;51.056;3.732;2023-11-18T12:33:23;5.20;;;2.30;;
21018;SDS011;10667;51.056;3.732;2023-11-18T12:41:19;3.45;;;2.45;;
21018;SDS011;10667;51.056;3.732;2023-11-18T12:44:36;4.15;;;2.40;;
21018;SDS011;10667;51.056;3.732;2023-11-18T12:46:49;3.60;;;2.22;;
21018;SDS011;10667;51.056;3.732;2023-11-18T12:49:43;3.03;;;2.50;;
21018;SDS011;10667;51.056;3.732;2023-11-18T12:52:10;3.92;;;2.63;;
21018;SDS011;10667;51.056;3.732;2023-11-18T12:54:40;2.35;;;2.15;;
21018;SDS011;10667;51.056;3.732;2023-11-18T12:57:12;3.45;;;2.45;;
21018;SDS011;10667;51.056;3.732;2023-11-18T12:59:39;2.75;;;1.88;;
21018;SDS011;10667;51.056;3.732;2023-11-18T13:02:09;2.72;;;2.15;;
21018;SDS011;10667;51.056;3.732;2023-11-18T13:04:44;2.60;;;2.13;;
21018;SDS011;10667;51.056;3.732;2023-11-18T13:07:15;2.97;;;2.67;;
21018;SDS011;10667;51.056;3.732;2023-11-18T13:09:48;2.38;;;2.00;;
21018;SDS011;10667;51.056;3.732;2023-11-18T13:12:14;2.83;;;2.03;;
21018;SDS011;10667;51.056;3.732;2023-11-18T13:14:41;4.35;;;2.80;;
21018;SDS011;10667;51.056;3.732;2023-11-18T13:17:15;6.13;;;2.00;;
21018;SDS011;10667;51.056;3.732;2023-11-18T13:19:42;4.15;;;2.22;;
21018;SDS011;10667;51.056;3.732;2023-11-18T13:22:12;2.20;;;1.83;;
21018;SDS011;10667;51.056;3.732;2023-11-18T13:24:40;1.88;;;1.77;;
21018;SDS011;10667;51.056;3.732;2023-11-18T13:27:10;2.15;;;1.92;;
21018;SDS011;10667;51.056;3.732;2023-11-18T13:29:45;3.70;;;1.98;;
21018;SDS011;10667;51.056;3.732;2023-11-18T13:32:18;2.20;;;2.03;;
21018;SDS011;10667;51.056;3.732;2023-11-18T13:34:50;2.70;;;2.20;;
21018;SDS011;10667;51.056;3.732;2023-11-18T13:37:16;2.03;;;1.83;;
21018;SDS011;10667;51.056;3.732;2023-11-18T13:39:43;2.10;;;1.92;;
21018;SDS011;10667;51.056;3.732;2023-11-18T13:45:14;2.58;;;2.33;;
21018;SDS011;10667;51.056;3.732;2023-11-18T13:47:51;4.57;;;2.92;;
21018;SDS011;10667;51.056;3.732;2023-11-18T13:50:20;3.22;;;2.28;;
21018;SDS011;10667;51.056;3.732;2023-11-18T13:52:46;3.33;;;2.78;;
21018;SDS011;10667;51.056;3.732;2023-11-18T13:55:14;3.90;;;3.10;;
21018;SDS011;10667;51.056;3.732;2023-11-18T13:57:52;3.50;;;3.20;;
21018;SDS011;10667;51.056;3.732;2023-11-18T14:00:25;4.43;;;3.80;;
21018;SDS011;10667;51.056;3.732;2023-11-18T14:02:57;4.05;;;3.63;;
21018;SDS011;10667;51.056;3.732;2023-11-18T14:05:23;6.78;;;4.18;;
21018;SDS011;10667;51.056;3.732;2023-11-18T14:07:57;7.03;;;4.30;;
21018;SDS011;10667;51.056;3.732;2023-11-18T14:10:33;5.82;;;3.92;;
21018;SDS011;10667;51.056;3.732;2023-11-18T14:13:04;4.80;;;3.80;;
21018;SDS011;10667;51.056;3.732;2023-11-18T14:15:42;6.88;;;3.75;;
21018;SDS011;10667;51.056;3.732;2023-11-18T14:18:10;5.57;;;3.72;;
21018;SDS011;10667;51.056;3.732;2023-11-18T14:20:38;9.15;;;4.28;;
21018;SDS011;10667;51.056;3.732;2023-11-18T14:23:03;6.38;;;3.85;;
21018;SDS011;10667;51.056;3.732;2023-11-18T14:25:29;10.05;;;4.35;;
21018;SDS011;10667;51.056;3.732;2023-11-18T14:27:56;7.45;;;4.43;;
21018;SDS011;10667;51.056;3.732;2023-11-18T14:30:22;5.50;;;3.97;;
21018;SDS011;10667;51.056;3.732;2023-11-18T14:32:49;9.40;;;4.57;;
21018;SDS011;10667;51.056;3.732;2023-11-18T14:35:16;5.40;;;4.50;;
21018;SDS011;10667;51.056;3.732;2023-11-18T14:37:45;7.28;;;4.93;;
21018;SDS011;10667;51.056;3.732;2023-11-18T14:40:14;8.25;;;4.40;;
21018;SDS011;10667;51.056;3.732;2023-11-18T14:42:44;9.23;;;4.60;;
21018;SDS011;10667;51.056;3.732;2023-11-18T14:45:14;6.18;;;4.50;;
21018;SDS011;10667;51.056;3.732;2023-11-18T14:47:41;6.55;;;4.43;;
21018;SDS011;10667;51.056;3.732;2023-11-18T14:50:13;6.00;;;4.68;;
21018;SDS011;10667;51.056;3.732;2023-11-18T14:52:48;9.90;;;5.22;;
21018;SDS011;10667;51.056;3.732;2023-11-18T14:55:26;6.97;;;4.80;;
21018;SDS011;10667;51.056;3.732;2023-11-18T14:57:52;6.00;;;4.72;;
21018;SDS011;10667;51.056;3.732;2023-11-18T15:00:18;6.82;;;4.57;;
21018;SDS011;10667;51.056;3.732;2023-11-18T15:02:47;8.75;;;4.85;;
21018;SDS011;10667;51.056;3.732;2023-11-18T15:05:16;6.80;;;5.10;;
21018;SDS011;10667;51.056;3.732;2023-11-18T15:07:44;8.00;;;5.30;;
21018;SDS011;10667;51.056;3.732;2023-11-18T15:10:16;7.57;;;5.15;;
21018;SDS011;10667;51.056;3.732;2023-11-18T15:12:47;6.57;;;4.97;;
21018;SDS011;10667;51.056;3.732;2023-11-18T15:15:14;5.57;;;5.05;;
21018;SDS011;10667;51.056;3.732;2023-11-18T15:17:44;5.43;;;4.78;;
21018;SDS011;10667;51.056;3.732;2023-11-18T15:20:11;6.88;;;5.25;;
21018;SDS011;10667;51.056;3.732;2023-11-18T15:22:37;6.68;;;5.97;;